Élőkép

Információk

Albatrosz Repülő Egyesület
8000 Székesfehérvár,
Radványi utca 6.

Adószám:
19092908-2-07

Bankszámla szám:
Budapest Bank
10102952-01361819-00000001

Telefon: +36 30 9598-897

Telephey: Börgönd repülőtér

Börgöndi repülõtér

LHBP METAR/TAF

[source: ADDS]
METAR
TAF LHBP 251100Z 2512/2612 34007KT 9999 BKN015 BKN045 BECMG 2515/2518 VRB03KT PROB40 TEMPO 2516/2524 4000 TSRA BKN008 BKN030CB TEMPO 2600/2606 2000 BR BKN001 BKN010 TAF
TAF LHBP 251100Z 2512/2612 34007KT 9999 BKN015 BKN045 BECMG 2515/2518 VRB03KT PROB40 TEMPO 2516/2524 4000 TSRA BKN008 BKN030CB TEMPO 2600/2606 2000 BR BKN001 BKN010 =
SR / SS: 03:01 / 18:28 UTC (Börgönd 2015-05-25)
Hungarian Chinese (Simplified) Croatian Czech English Finnish French German Hebrew Italian Japanese Polish Portuguese Romanian Russian Serbian Slovak Slovenian Spanish

Belépés tagoknak